North Hills, North Carolina
Current Conditions -  °F | °C
As of 12:51 PM on Friday 24 Oct 2014 (Local Time) from KRDU Reporting Station
Scattered Clouds Scattered Clouds  
Wind Chill: 67°   Ceiling: Unl
Heat Index: 67°   Visibility: 10mi
Dew Point: 43°   Wind: 0mph
Humidity: 42%   Direction: NA
Pressure: 30.03"   Gusts: NA
Location:  35.9447°N, 78.6275°W
Report Text: KRDU 241651Z 00000KT 10SM FEW180 SCT250 19/06 A3003 RMK AO2 SLP168 T01940061
Loading
Personal Weather Stations






























Interactive Weather Map
Tropical Storm Tracking
New forecast layout! Learn more

10-Day Weather Forecast

Advertisements
Track Severe Weather on mobile